createdAt,value
2017-10-31T00:00:48.756Z,89.6
2017-10-31T00:01:47.791Z,89.4
2017-10-31T00:02:47.194Z,89.2
2017-10-31T00:03:45.713Z,89.3
2017-10-31T00:04:45.009Z,89.3
2017-10-31T00:05:44.027Z,89.2
2017-10-31T00:07:42.181Z,89.4
2017-10-31T00:08:41.223Z,89.3
2017-10-31T00:09:40.235Z,89.3
2017-10-31T00:10:39.520Z,89.2
2017-10-31T00:11:38.155Z,89.3
2017-10-31T00:12:37.536Z,89.2
2017-10-31T00:13:36.801Z,89
2017-10-31T00:14:35.809Z,89
2017-10-31T00:15:34.821Z,89
2017-10-31T00:16:33.455Z,88.8
2017-10-31T00:17:32.461Z,88.8
2017-10-31T00:18:31.872Z,88.7
2017-10-31T00:19:31.007Z,88.6
2017-10-31T00:20:29.648Z,88.4
2017-10-31T00:21:29.055Z,88.5
2017-10-31T00:22:28.059Z,88.6
2017-10-31T00:23:27.205Z,88.6
2017-10-31T00:24:26.211Z,88.6
2017-10-31T00:25:24.977Z,88.7
2017-10-31T00:26:24.128Z,88.7
2017-10-31T00:27:23.130Z,88.6
2017-10-31T00:28:22.142Z,88.5
2017-10-31T00:29:21.417Z,88.7
2017-10-31T00:30:20.289Z,88.6
2017-10-31T00:31:19.567Z,88.5
2017-10-31T00:32:18.308Z,88.4
2017-10-31T00:33:17.444Z,88.5
2017-10-31T00:34:16.450Z,88.4
2017-10-31T00:35:15.847Z,88.5
2017-10-31T00:36:14.762Z,88.4
2017-10-31T00:37:13.770Z,88.5
2017-10-31T00:38:12.666Z,88.7
2017-10-31T00:39:11.584Z,88.7
2017-10-31T00:40:11.094Z,88.7
2017-10-31T00:41:10.001Z,88.6
2017-10-31T00:42:09.150Z,88.5
2017-10-31T00:43:07.790Z,88.5
2017-10-31T00:44:07.306Z,88.3
2017-10-31T00:45:06.318Z,88.4
2017-10-31T00:46:04.951Z,88.3
2017-10-31T00:47:04.092Z,88.3
2017-10-31T00:48:03.478Z,88
2017-10-31T00:49:02.117Z,87.8
2017-10-31T00:50:01.403Z,87.7
2017-10-31T00:51:00.340Z,87.7
2017-10-31T00:52:58.499Z,87.4
2017-10-31T00:53:57.374Z,87.4
2017-10-31T00:54:56.889Z,87.2
2017-10-31T00:55:55.897Z,87.2
2017-10-31T00:56:54.769Z,87
2017-10-31T00:57:54.180Z,86.9
2017-10-31T00:58:53.194Z,87.1
2017-10-31T00:59:51.831Z,87
2017-10-31T01:00:50.956Z,87.1
2017-10-31T01:01:50.223Z,87
2017-10-31T01:02:20.542Z,87
2017-10-31T01:02:50.863Z,87.1
2017-10-31T01:03:21.328Z,87.1
2017-10-31T01:03:51.919Z,87.1
2017-10-31T01:04:47.402Z,87.1
2017-10-31T01:05:46.046Z,86.7
2017-10-31T01:06:45.567Z,86.7
2017-10-31T01:07:44.211Z,86.7
2017-10-31T01:08:43.350Z,86.8
2017-10-31T01:09:42.506Z,86.7
2017-10-31T01:10:41.514Z,86.7
2017-10-31T01:11:40.393Z,86.7
2017-10-31T01:12:39.532Z,86.8
2017-10-31T01:13:10.123Z,86.8
2017-10-31T01:14:38.082Z,86.7
2017-10-31T01:15:36.986Z,86.7
2017-10-31T01:16:35.761Z,86.8
2017-10-31T01:17:34.903Z,86.8
2017-10-31T01:18:34.310Z,86.7
2017-10-31T01:19:32.945Z,86.6
2017-10-31T01:20:31.844Z,86.6
2017-10-31T01:21:31.354Z,86.6
2017-10-31T01:22:30.491Z,86.6
2017-10-31T01:23:29.129Z,86.6
2017-10-31T01:24:28.137Z,86.8
2017-10-31T01:25:27.519Z,86.7
2017-10-31T01:26:26.662Z,86.7
2017-10-31T01:27:25.307Z,86.6
2017-10-31T01:28:24.452Z,86.5
2017-10-31T01:29:23.730Z,86.5
2017-10-31T01:30:22.871Z,86.5
2017-10-31T01:31:21.520Z,86.6
2017-10-31T01:32:21.161Z,86.6
2017-10-31T01:33:20.039Z,86.7
2017-10-31T01:34:18.946Z,86.8
2017-10-31T01:35:17.826Z,86.8
2017-10-31T01:36:17.104Z,86.6
2017-10-31T01:37:15.983Z,86.7
2017-10-31T01:38:15.406Z,86.8
2017-10-31T01:39:14.041Z,86.8
2017-10-31T01:40:13.184Z,86.7
2017-10-31T01:42:30.875Z,86.7
2017-10-31T01:44:09.778Z,86.8
2017-10-31T01:44:39.970Z,86.8
2017-10-31T01:46:07.544Z,87.2
2017-10-31T01:47:06.702Z,87
2017-10-31T01:48:06.093Z,87.1
2017-10-31T01:49:04.749Z,87.1
2017-10-31T01:50:04.035Z,87.1
2017-10-31T01:51:02.913Z,87
2017-10-31T01:52:02.088Z,87
2017-10-31T01:53:01.231Z,87
2017-10-31T01:54:00.110Z,87
2017-10-31T01:54:30.840Z,87
2017-10-31T01:55:58.186Z,87
2017-10-31T01:56:57.200Z,87
2017-10-31T01:57:56.224Z,87.1
2017-10-31T01:58:55.604Z,87
2017-10-31T01:59:54.618Z,87.1
2017-10-31T02:00:53.390Z,87.2
2017-10-31T02:01:52.544Z,87.2
2017-10-31T02:02:51.551Z,87.4
2017-10-31T02:03:51.072Z,87.1
2017-10-31T02:04:49.851Z,87
2017-10-31T02:05:49.261Z,87.1
2017-10-31T02:06:48.283Z,87.1
2017-10-31T02:07:47.432Z,87
2017-10-31T02:08:46.211Z,86.9
2017-10-31T02:09:45.366Z,86.9
2017-10-31T02:10:44.378Z,87
2017-10-31T02:11:43.390Z,87
2017-10-31T02:12:42.172Z,86.9
2017-10-31T02:13:41.558Z,87
2017-10-31T02:15:39.587Z,87
2017-10-31T02:16:38.480Z,86.9
2017-10-31T02:17:37.866Z,86.9
2017-10-31T02:18:36.879Z,86.9
2017-10-31T02:19:35.794Z,86.9
2017-10-31T02:20:35.061Z,86.8
2017-10-31T02:21:34.205Z,86.8
2017-10-31T02:22:32.859Z,86.8
2017-10-31T02:23:32.145Z,86.9
2017-10-31T02:24:31.290Z,86.9
2017-10-31T02:25:01.879Z,86.9
2017-10-31T02:25:32.474Z,87
2017-10-31T02:26:29.481Z,87
2017-10-31T02:27:28.491Z,87
2017-10-31T02:28:27.638Z,87
2017-10-31T02:29:26.523Z,87.1
2017-10-31T02:30:25.804Z,87.2
2017-10-31T02:31:24.858Z,87.2
2017-10-31T02:32:23.738Z,87.1
2017-10-31T02:34:21.900Z,87.4
2017-10-31T02:35:21.053Z,87.3
2017-10-31T02:36:20.201Z,87.3
2017-10-31T02:37:18.991Z,87.5
2017-10-31T02:38:18.285Z,87.6
2017-10-31T02:39:17.432Z,87.7
2017-10-31T02:41:15.469Z,87.6
2017-10-31T02:42:14.764Z,87.5
2017-10-31T02:43:13.680Z,87.7
2017-10-31T02:44:12.321Z,87.6
2017-10-31T02:45:11.975Z,87.6
2017-10-31T02:46:10.622Z,87.7
2017-10-31T02:47:09.773Z,87.8
2017-10-31T02:48:08.925Z,87.7
2017-10-31T02:49:07.943Z,87.7
2017-10-31T02:50:06.961Z,87.8
2017-10-31T02:51:06.112Z,87.9
2017-10-31T02:52:05.257Z,87.7
2017-10-31T02:53:04.396Z,87.7
2017-10-31T02:54:03.184Z,87.8
2017-10-31T02:55:02.504Z,87.7
2017-10-31T02:56:01.527Z,87.7
2017-10-31T02:57:00.319Z,87.7
2017-10-31T02:57:59.838Z,87.8
2017-10-31T02:58:58.493Z,87.9
2017-10-31T03:00:56.662Z,88
2017-10-31T03:01:55.810Z,88
2017-10-31T03:02:54.834Z,88
2017-10-31T03:03:53.982Z,88.1
2017-10-31T03:04:53.129Z,87.9
2017-10-31T03:05:52.279Z,87.9
2017-10-31T03:06:50.919Z,88
2017-10-31T03:07:50.558Z,88
2017-10-31T03:08:49.436Z,88.1
2017-10-31T03:09:48.208Z,87.9
2017-10-31T03:10:47.588Z,87.9
2017-10-31T03:11:46.516Z,87.8
2017-10-31T03:12:45.534Z,87.9
2017-10-31T03:13:44.690Z,87.9
2017-10-31T03:14:43.841Z,87.8
2017-10-31T03:15:42.882Z,87.8
2017-10-31T03:16:41.632Z,87.8
2017-10-31T03:17:41.012Z,87.8
2017-10-31T03:18:39.923Z,88
2017-10-31T03:19:10.514Z,88
2017-10-31T03:20:38.094Z,87.9
2017-10-31T03:21:37.245Z,87.8
2017-10-31T03:22:36.386Z,87.9
2017-10-31T03:23:35.548Z,87.9
2017-10-31T03:24:34.190Z,87.9
2017-10-31T03:25:33.715Z,87.9
2017-10-31T03:26:32.491Z,87.9
2017-10-31T03:27:31.778Z,87.8
2017-10-31T03:28:30.421Z,87.8
2017-10-31T03:29:00.882Z,87.8
2017-10-31T03:30:28.715Z,87.9
2017-10-31T03:31:27.761Z,87.8
2017-10-31T03:32:26.929Z,87.7
2017-10-31T03:33:26.086Z,87.9
2017-10-31T03:34:24.991Z,87.8
2017-10-31T03:35:24.265Z,87.8
2017-10-31T03:36:23.544Z,87.8
2017-10-31T03:37:22.204Z,87.9
2017-10-31T03:38:21.095Z,87.9
2017-10-31T03:39:20.504Z,88.1
2017-10-31T03:40:19.539Z,87.9
2017-10-31T03:41:18.694Z,87.9
2017-10-31T03:42:17.568Z,87.8
2017-10-31T03:43:16.981Z,87.7
2017-10-31T03:44:15.863Z,87.8
2017-10-31T03:45:15.002Z,88.1
2017-10-31T03:46:13.888Z,88.1
2017-10-31T03:47:12.899Z,88.4
2017-10-31T03:48:12.198Z,88.4
2017-10-31T03:49:11.341Z,88.4
2017-10-31T03:50:10.357Z,88.5
2017-10-31T03:51:09.512Z,88.7
2017-10-31T03:52:08.170Z,88.7
2017-10-31T03:54:06.716Z,89.1
2017-10-31T03:55:05.870Z,89.2
2017-10-31T03:56:04.382Z,89.3
2017-10-31T03:57:03.801Z,89.4
2017-10-31T03:58:02.945Z,89.6
2017-10-31T03:59:01.729Z,89.7
2017-10-31T03:59:32.192Z,89.7
2017-10-31T04:00:59.911Z,90.1
2017-10-31T04:01:59.072Z,90.4
2017-10-31T04:02:58.227Z,90.5
2017-10-31T04:03:57.145Z,90.5
2017-10-31T04:04:56.161Z,90.5
2017-10-31T04:05:55.196Z,90.7
2017-10-31T04:06:54.472Z,91
2017-10-31T04:07:53.224Z,90.9
2017-10-31T04:08:52.610Z,90.8
2017-10-31T04:09:23.070Z,90.8
2017-10-31T04:09:53.290Z,90.5
2017-10-31T04:10:23.887Z,90.5
2017-10-31T04:10:54.344Z,90.5
2017-10-31T04:11:24.558Z,90.5
2017-10-31T04:11:55.011Z,90.6
2017-10-31T04:12:25.475Z,90.6
2017-10-31T04:13:47.779Z,90.7
2017-10-31T04:14:47.051Z,90.6
2017-10-31T04:15:46.199Z,90.9
2017-10-31T04:16:45.218Z,91
2017-10-31T04:17:44.095Z,91
2017-10-31T04:18:43.377Z,91.1
2017-10-31T04:19:42.402Z,91.1
2017-10-31T04:20:41.286Z,90.9
2017-10-31T04:21:40.296Z,90.8
2017-10-31T04:22:39.569Z,90.9
2017-10-31T04:23:38.592Z,90.8
2017-10-31T04:24:37.746Z,91
2017-10-31T04:25:36.530Z,91.1
2017-10-31T04:26:36.181Z,91
2017-10-31T04:27:35.098Z,90.8
2017-10-31T04:28:34.111Z,90.7
2017-10-31T04:29:32.895Z,90.7
2017-10-31T04:30:32.049Z,90.9
2017-10-31T04:31:30.943Z,90.7
2017-10-31T04:32:30.228Z,90.8
2017-10-31T04:33:29.243Z,90.8
2017-10-31T04:34:28.120Z,90.2
2017-10-31T04:35:27.643Z,90.2
2017-10-31T04:36:26.281Z,90.2
2017-10-31T04:37:25.558Z,90.1
2017-10-31T04:38:24.700Z,90.2
2017-10-31T04:39:23.469Z,90.1
2017-10-31T04:40:23.118Z,90.2
2017-10-31T04:40:53.450Z,90.2
2017-10-31T04:41:24.145Z,90
2017-10-31T04:42:21.174Z,90.1
2017-10-31T04:43:20.321Z,89.9
2017-10-31T04:44:19.093Z,89.9
2017-10-31T04:45:18.105Z,89.7
2017-10-31T04:47:16.140Z,89.5
2017-10-31T04:48:15.285Z,89.6
2017-10-31T04:49:14.446Z,89.6
2017-10-31T04:50:13.456Z,89.7
2017-10-31T04:51:12.610Z,89.7
2017-10-31T04:51:43.200Z,89.7
2017-10-31T04:53:10.630Z,89.7
2017-10-31T04:54:09.906Z,89.9
2017-10-31T04:55:08.936Z,90
2017-10-31T04:56:08.075Z,90.1
2017-10-31T04:57:07.091Z,90
2017-10-31T04:58:06.372Z,90.2
2017-10-31T04:59:05.006Z,90.2
2017-10-31T05:00:04.143Z,90.5
2017-10-31T05:01:03.425Z,90.3
2017-10-31T05:02:02.308Z,90.3
2017-10-31T05:03:01.451Z,90.1
2017-10-31T05:04:00.360Z,90.2
2017-10-31T05:04:59.656Z,90.3
2017-10-31T05:05:58.806Z,90.5
2017-10-31T05:06:57.722Z,90.5
2017-10-31T05:07:56.882Z,90.5
2017-10-31T05:08:56.026Z,90.9
2017-10-31T05:09:55.048Z,91.1
2017-10-31T05:10:54.202Z,91.1
2017-10-31T05:11:53.207Z,91.4
2017-10-31T05:12:52.346Z,91.6
2017-10-31T05:13:51.492Z,91.1
2017-10-31T05:14:50.274Z,91.3
2017-10-31T05:15:49.284Z,91.3
2017-10-31T05:16:48.446Z,91
2017-10-31T05:17:47.595Z,91.1
2017-10-31T05:18:46.882Z,90.9
2017-10-31T05:19:45.795Z,90.5
2017-10-31T05:20:44.951Z,90.3
2017-10-31T05:21:43.974Z,90.6
2017-10-31T05:22:42.862Z,90.9
2017-10-31T05:23:42.152Z,90.8
2017-10-31T05:24:41.059Z,90.9
2017-10-31T05:25:40.337Z,90.9
2017-10-31T05:28:23.710Z,90.9
2017-10-31T05:29:36.452Z,90.9
2017-10-31T05:30:35.470Z,90.9
2017-10-31T05:31:34.616Z,90.9
2017-10-31T05:32:33.630Z,91
2017-10-31T05:33:32.529Z,91.2
2017-10-31T05:34:31.920Z,91
2017-10-31T05:35:30.937Z,91.2
2017-10-31T05:36:29.963Z,91
2017-10-31T05:37:29.111Z,91.1
2017-10-31T05:38:28.150Z,91.5
2017-10-31T05:39:26.946Z,91.4
2017-10-31T05:40:26.329Z,91.2
2017-10-31T05:41:24.969Z,91.4
2017-10-31T05:42:24.125Z,91.1
2017-10-31T05:43:23.641Z,91.2
2017-10-31T05:44:22.412Z,91.1
2017-10-31T05:45:21.561Z,90.7
2017-10-31T05:46:20.437Z,90.7
2017-10-31T05:47:19.724Z,90.7
2017-10-31T05:48:18.864Z,90.6
2017-10-31T05:49:17.746Z,90.6
2017-10-31T05:50:16.758Z,90.5
2017-10-31T05:52:14.929Z,90.6
2017-10-31T05:53:14.210Z,90.7
2017-10-31T05:54:13.220Z,90.6
2017-10-31T05:55:12.122Z,90.6
2017-10-31T05:56:11.298Z,90.5
2017-10-31T05:57:10.175Z,90.5
2017-10-31T05:59:08.335Z,90.5
2017-10-31T06:00:07.722Z,90.5
2017-10-31T06:02:05.767Z,90.6
2017-10-31T06:03:04.679Z,90.6
2017-10-31T06:05:02.943Z,90.8
2017-10-31T06:06:01.962Z,90.7
2017-10-31T06:07:00.839Z,90.7
2017-10-31T06:08:00.384Z,90.5
2017-10-31T06:08:58.896Z,90.6
2017-10-31T06:09:58.416Z,90.8
2017-10-31T06:11:56.205Z,90.8
2017-10-31T06:12:55.590Z,90.7
2017-10-31T06:13:54.609Z,90.8
2017-10-31T06:14:53.496Z,90.9
2017-10-31T06:15:52.666Z,91
2017-10-31T06:16:51.585Z,90.9
2017-10-31T06:17:50.602Z,90.8
2017-10-31T06:18:49.760Z,90.8
2017-10-31T06:19:48.778Z,90.9
2017-10-31T06:21:46.951Z,90.8
2017-10-31T06:22:46.239Z,90.8
2017-10-31T06:23:45.509Z,90.6
2017-10-31T06:24:44.025Z,90.7
2017-10-31T06:25:43.038Z,90.8
2017-10-31T06:26:42.426Z,90.5
2017-10-31T06:27:12.751Z,90.5
2017-10-31T06:27:43.208Z,90.5
2017-10-31T06:28:40.348Z,90.2
2017-10-31T06:29:39.773Z,90
2017-10-31T06:30:38.543Z,90.1
2017-10-31T06:31:37.814Z,90.2
2017-10-31T06:32:37.106Z,90
2017-10-31T06:33:35.749Z,90.1
2017-10-31T06:34:35.260Z,89.9
2017-10-31T06:35:33.906Z,89.7
2017-10-31T06:36:33.328Z,89.6
2017-10-31T06:37:31.968Z,89.2
2017-10-31T06:38:31.242Z,89.3
2017-10-31T06:39:30.386Z,89.2
2017-10-31T06:41:28.423Z,89
2017-10-31T06:42:27.596Z,89.1
2017-10-31T06:43:26.866Z,89.1
2017-10-31T06:44:25.753Z,88.7
2017-10-31T06:45:24.528Z,88.8
2017-10-31T06:46:23.937Z,88.8
2017-10-31T06:47:22.953Z,88.6
2017-10-31T06:48:21.742Z,88.1
2017-10-31T06:49:20.755Z,88.1
2017-10-31T06:51:19.172Z,88.1
2017-10-31T06:52:18.187Z,88.4
2017-10-31T06:54:16.077Z,88.2
2017-10-31T06:55:15.233Z,88.4
2017-10-31T06:56:14.520Z,88.2
2017-10-31T06:57:13.415Z,88.3
2017-10-31T06:58:12.442Z,88.1
2017-10-31T06:59:11.858Z,88.4
2017-10-31T07:00:11.004Z,88.5
2017-10-31T07:00:41.329Z,88.5
2017-10-31T07:01:12.024Z,87.9
2017-10-31T07:02:08.791Z,87.9
2017-10-31T07:03:07.857Z,88.1
2017-10-31T07:04:06.740Z,88
2017-10-31T07:05:06.272Z,88.1
2017-10-31T07:06:05.048Z,88.1
2017-10-31T07:07:04.326Z,87.8
2017-10-31T07:08:03.342Z,87.8
2017-10-31T07:09:02.492Z,87.9
2017-10-31T07:10:01.805Z,88.1
2017-10-31T07:11:00.326Z,88
2017-10-31T07:11:59.608Z,88.1
2017-10-31T07:12:58.521Z,88
2017-10-31T07:13:57.797Z,87.9
2017-10-31T07:14:56.971Z,88.1
2017-10-31T07:16:54.921Z,87.6
2017-10-31T07:17:54.210Z,87.4
2017-10-31T07:18:53.222Z,87.8
2017-10-31T07:19:52.364Z,87.7
2017-10-31T07:20:51.507Z,87.7
2017-10-31T07:21:50.520Z,87.2
2017-10-31T07:22:49.160Z,87.4
2017-10-31T07:23:48.446Z,87.7
2017-10-31T07:24:47.326Z,87.5
2017-10-31T07:25:46.342Z,87.5
2017-10-31T07:26:45.725Z,87.5
2017-10-31T07:27:44.620Z,87.7
2017-10-31T07:28:43.773Z,87.9
2017-10-31T07:29:42.938Z,88
2017-10-31T07:30:42.092Z,87.4
2017-10-31T07:31:41.020Z,87.8
2017-10-31T07:32:40.168Z,87.8
2017-10-31T07:33:39.319Z,87.6
2017-10-31T07:34:38.340Z,87.5
2017-10-31T07:35:37.094Z,87.7
2017-10-31T07:36:36.386Z,87.9
2017-10-31T07:37:35.544Z,87.5
2017-10-31T07:38:34.431Z,87.8
2017-10-31T07:39:33.827Z,87.5
2017-10-31T07:40:32.845Z,87.8
2017-10-31T07:41:31.737Z,87.9
2017-10-31T07:42:30.779Z,87.7
2017-10-31T07:43:30.069Z,87.8
2017-10-31T07:44:29.358Z,86.9
2017-10-31T07:45:28.438Z,87.2
2017-10-31T07:46:27.083Z,87.2
2017-10-31T07:47:26.369Z,87.2
2017-10-31T07:48:25.394Z,87.2
2017-10-31T07:49:24.419Z,86.4
2017-10-31T07:50:23.461Z,86.7
2017-10-31T07:51:22.486Z,86.8
2017-10-31T07:52:21.778Z,86.3
2017-10-31T07:53:20.790Z,86.6
2017-10-31T07:54:20.113Z,86.4
2017-10-31T07:55:18.977Z,86.5
2017-10-31T07:56:18.122Z,86.6
2017-10-31T07:58:16.022Z,86.2
2017-10-31T07:59:15.447Z,86
2017-10-31T08:00:14.242Z,86.2
2017-10-31T08:02:12.395Z,85.6
2017-10-31T08:04:10.822Z,85.1
2017-10-31T08:05:09.836Z,85.3
2017-10-31T08:06:08.477Z,85.1
2017-10-31T08:07:07.988Z,85.5
2017-10-31T08:08:07.133Z,85.1
2017-10-31T08:09:06.165Z,85
2017-10-31T08:10:05.210Z,84.9
2017-10-31T08:11:03.991Z,85.1
2017-10-31T08:12:03.145Z,84.7
2017-10-31T08:13:02.290Z,84.9
2017-10-31T08:14:01.443Z,84.9
2017-10-31T08:15:00.722Z,85.3
2017-10-31T08:15:59.364Z,84.5
2017-10-31T08:16:58.617Z,84.8
2017-10-31T08:17:57.664Z,84.6
2017-10-31T08:18:56.556Z,84.7
2017-10-31T08:19:55.576Z,84.3
2017-10-31T08:20:54.741Z,84.5
2017-10-31T08:21:54.011Z,84.4
2017-10-31T08:22:53.020Z,84.3
2017-10-31T08:23:52.035Z,84.3
2017-10-31T08:24:51.045Z,84.5
2017-10-31T08:25:50.566Z,83.5
2017-10-31T08:26:49.202Z,83.7
2017-10-31T08:27:48.217Z,83.5
2017-10-31T08:28:47.874Z,83.7
2017-10-31T08:29:46.784Z,83.8
2017-10-31T08:30:45.796Z,83.5
2017-10-31T08:31:44.944Z,83.6
2017-10-31T08:32:44.090Z,83.4
2017-10-31T08:33:43.104Z,83.5
2017-10-31T08:34:42.115Z,83.4
2017-10-31T08:35:12.340Z,83.4
2017-10-31T08:35:42.668Z,83.3
2017-10-31T08:36:40.446Z,82.6
2017-10-31T08:37:39.190Z,83
2017-10-31T08:38:38.463Z,83.3
2017-10-31T08:39:37.340Z,83.3
2017-10-31T08:40:36.631Z,83
2017-10-31T08:41:35.384Z,83
2017-10-31T08:42:35.036Z,82.5
2017-10-31T08:44:32.791Z,83
2017-10-31T08:45:31.804Z,83.1
2017-10-31T08:46:30.815Z,82.7
2017-10-31T08:47:30.367Z,82.7
2017-10-31T08:48:29.378Z,82.8
2017-10-31T08:49:28.390Z,82.6
2017-10-31T08:50:27.693Z,83
2017-10-31T08:51:26.343Z,82.5
2017-10-31T08:52:25.877Z,82.3
2017-10-31T08:53:24.392Z,82
2017-10-31T08:54:23.545Z,82.3
2017-10-31T08:55:22.827Z,82.1
2017-10-31T08:56:22.236Z,82
2017-10-31T08:57:21.261Z,82.1
2017-10-31T08:58:20.042Z,82.4
2017-10-31T08:59:19.326Z,82.2
2017-10-31T09:00:18.116Z,82.8
2017-10-31T09:01:17.305Z,81.8
2017-10-31T09:02:16.544Z,82
2017-10-31T09:03:15.829Z,81.9
2017-10-31T09:04:14.712Z,81.9
2017-10-31T09:05:13.734Z,81.9
2017-10-31T09:06:12.646Z,82.2
2017-10-31T09:07:11.934Z,82.1
2017-10-31T09:08:11.082Z,82
2017-10-31T09:09:10.235Z,81.9
2017-10-31T09:10:09.244Z,81.6
2017-10-31T09:11:08.262Z,81.8
2017-10-31T09:12:07.273Z,81.9
2017-10-31T09:13:06.541Z,81.8
2017-10-31T09:14:05.560Z,82.3
2017-10-31T09:15:04.439Z,81.9
2017-10-31T09:16:03.823Z,82.2
2017-10-31T09:17:02.597Z,82.3
2017-10-31T09:18:01.608Z,82.1
2017-10-31T09:19:00.756Z,82.2
2017-10-31T09:20:59.285Z,82.2
2017-10-31T09:21:58.084Z,82.3
2017-10-31T09:22:57.475Z,82.2
2017-10-31T09:23:56.363Z,81.8
2017-10-31T09:24:55.397Z,82.1
2017-10-31T09:25:54.552Z,82.1
2017-10-31T09:26:53.573Z,82.3
2017-10-31T09:27:52.847Z,82
2017-10-31T09:28:51.996Z,82.4
2017-10-31T09:29:50.758Z,82.3
2017-10-31T09:30:49.779Z,82.3
2017-10-31T09:31:49.067Z,82.4
2017-10-31T09:32:48.089Z,82.4
2017-10-31T09:33:47.382Z,82.4
2017-10-31T09:34:46.418Z,83
2017-10-31T09:35:45.296Z,82.8
2017-10-31T09:36:44.447Z,83.4
2017-10-31T09:37:43.862Z,83.3
2017-10-31T09:38:42.905Z,83.3
2017-10-31T09:39:41.922Z,83.2
2017-10-31T09:40:41.217Z,82.6
2017-10-31T09:41:39.763Z,83
2017-10-31T09:42:39.281Z,82.6
2017-10-31T09:43:38.301Z,81.6
2017-10-31T09:44:37.069Z,81.8
2017-10-31T09:45:36.331Z,82.4
2017-10-31T09:46:35.347Z,81.5
2017-10-31T09:47:34.242Z,81.8
2017-10-31T09:48:33.895Z,81.3
2017-10-31T09:49:33.043Z,80.8
2017-10-31T09:50:31.828Z,81.5
2017-10-31T09:51:30.713Z,81.2
2017-10-31T09:52:29.738Z,80.6
2017-10-31T09:53:28.890Z,80.9
2017-10-31T09:54:28.051Z,81.2
2017-10-31T09:55:27.487Z,80.4
2017-10-31T09:56:26.141Z,80.5
2017-10-31T09:57:25.402Z,80.5
2017-10-31T09:58:24.553Z,80.4
2017-10-31T09:59:23.846Z,80.8
2017-10-31T10:00:22.870Z,80.2
2017-10-31T10:01:22.022Z,80.7
2017-10-31T10:02:21.026Z,80.7
2017-10-31T10:03:20.180Z,80.5
2017-10-31T10:04:19.324Z,80.7
2017-10-31T10:05:17.968Z,80.9
2017-10-31T10:06:17.619Z,80.8
2017-10-31T10:07:16.499Z,80.9
2017-10-31T10:09:14.766Z,80.8
2017-10-31T10:10:13.552Z,80.7
2017-10-31T10:11:12.585Z,80.6
2017-10-31T10:12:12.107Z,80
2017-10-31T10:13:11.267Z,79.9
2017-10-31T10:13:41.453Z,79.9
2017-10-31T10:14:11.914Z,80.2
2017-10-31T10:14:42.000Z,80.2
2017-10-31T10:15:12.461Z,79.4
2017-10-31T10:16:08.223Z,79.2
2017-10-31T10:17:07.236Z,79
2017-10-31T10:18:06.247Z,79.3
2017-10-31T10:19:05.544Z,78.5
2017-10-31T10:20:04.835Z,77.6
2017-10-31T10:21:03.751Z,77.1
2017-10-31T10:22:02.769Z,76.4
2017-10-31T10:23:02.053Z,76.2
2017-10-31T10:25:00.214Z,76.4
2017-10-31T10:25:59.271Z,75.9
2017-10-31T10:26:58.438Z,75.9
2017-10-31T10:27:57.703Z,76.3
2017-10-31T10:28:56.354Z,76.1
2017-10-31T10:29:55.769Z,75.9
2017-10-31T10:30:54.652Z,75.6
2017-10-31T10:31:53.801Z,76.1
2017-10-31T10:32:52.825Z,76.7
2017-10-31T10:33:52.130Z,76.5
2017-10-31T10:34:51.149Z,76.4
2017-10-31T10:35:50.159Z,76.6
2017-10-31T10:36:49.302Z,77
2017-10-31T10:37:48.461Z,76
2017-10-31T10:38:47.472Z,75.6
2017-10-31T10:39:46.985Z,75.9
2017-10-31T10:40:45.639Z,76.1
2017-10-31T10:41:45.164Z,76.1
2017-10-31T10:42:44.043Z,76.2
2017-10-31T10:43:43.347Z,76.7
2017-10-31T10:44:42.508Z,76.1
2017-10-31T10:45:41.294Z,75.8
2017-10-31T10:46:40.315Z,76.2
2017-10-31T10:47:39.461Z,75.8
2017-10-31T10:48:38.607Z,75.2
2017-10-31T10:49:37.888Z,74.9
2017-10-31T10:50:36.810Z,74
2017-10-31T10:51:36.326Z,73.9
2017-10-31T10:52:34.975Z,74.3
2017-10-31T10:53:34.632Z,73.9
2017-10-31T10:54:33.282Z,73.7
2017-10-31T10:55:32.798Z,74.1
2017-10-31T10:56:31.678Z,74
2017-10-31T10:57:30.698Z,74.1
2017-10-31T10:59:29.096Z,75
2017-10-31T11:00:28.110Z,74.3
2017-10-31T11:01:26.995Z,74
2017-10-31T11:02:26.513Z,74
2017-10-31T11:03:25.293Z,74.4
2017-10-31T11:08:21.107Z,75.1
2017-10-31T11:09:19.883Z,74.8
2017-10-31T11:10:19.277Z,74.3
2017-10-31T11:11:18.441Z,74.1
2017-10-31T11:12:17.327Z,74
2017-10-31T11:13:16.490Z,73.6
2017-10-31T11:14:15.775Z,73.5
2017-10-31T11:15:14.563Z,73.2
2017-10-31T11:16:14.086Z,73
2017-10-31T11:18:11.853Z,72.9
2017-10-31T11:19:11.241Z,73.2
2017-10-31T11:20:10.527Z,73.5
2017-10-31T11:21:09.555Z,73.1
2017-10-31T11:22:08.699Z,73.6
2017-10-31T11:23:07.590Z,73.7
2017-10-31T11:24:06.744Z,73.8
2017-10-31T11:25:06.033Z,73.8
2017-10-31T11:26:04.828Z,73.9
2017-10-31T11:27:04.220Z,74.4
2017-10-31T11:28:03.607Z,74.3
2017-10-31T11:29:02.632Z,74.6
2017-10-31T11:30:01.276Z,74
2017-10-31T11:31:00.426Z,73.5
2017-10-31T11:31:59.809Z,73.6
2017-10-31T11:32:58.952Z,73.4
2017-10-31T11:33:57.875Z,73.2
2017-10-31T11:34:57.018Z,72.9
2017-10-31T11:35:56.170Z,72.8
2017-10-31T11:36:55.188Z,72.4
2017-10-31T11:37:54.330Z,72.2
2017-10-31T11:38:53.722Z,72.9
2017-10-31T11:39:52.864Z,72.6
2017-10-31T11:40:51.875Z,72.9
2017-10-31T11:41:50.880Z,72.4
2017-10-31T11:42:50.027Z,72.3
2017-10-31T11:43:49.172Z,72.7
2017-10-31T11:44:48.451Z,72.8
2017-10-31T11:45:47.472Z,73.1
2017-10-31T11:46:46.760Z,73.3
2017-10-31T11:47:45.775Z,73.8
2017-10-31T11:48:44.809Z,74.3
2017-10-31T11:49:44.083Z,75.7
2017-10-31T11:50:42.967Z,76.4
2017-10-31T11:51:42.115Z,77.3
2017-10-31T11:52:41.267Z,77.3
2017-10-31T11:54:39.808Z,77
2017-10-31T11:55:38.719Z,75.4
2017-10-31T11:56:37.884Z,75.8
2017-10-31T11:57:36.782Z,74.1
2017-10-31T11:58:35.936Z,74
2017-10-31T11:59:34.817Z,74
2017-10-31T12:00:34.088Z,73.3
2017-10-31T12:02:32.357Z,72.3
2017-10-31T12:03:31.503Z,72.2
2017-10-31T12:04:30.528Z,71.8
2017-10-31T12:05:29.684Z,72.9
2017-10-31T12:06:28.713Z,72.7
2017-10-31T12:07:28.129Z,71.7
2017-10-31T12:08:27.019Z,71.9
2017-10-31T12:09:26.438Z,71.7
2017-10-31T12:10:25.331Z,72
2017-10-31T12:11:24.484Z,72.5
2017-10-31T12:12:23.505Z,71.1
2017-10-31T12:13:22.925Z,71.5
2017-10-31T12:14:21.952Z,71.3
2017-10-31T12:15:20.728Z,71.3
2017-10-31T12:16:20.255Z,71.5
2017-10-31T12:17:19.136Z,71.7
2017-10-31T12:18:18.152Z,71.3
2017-10-31T12:19:17.301Z,71.7
2017-10-31T12:20:16.814Z,72.7
2017-10-31T12:21:15.827Z,71.9
2017-10-31T12:22:14.736Z,71.4
2017-10-31T12:22:45.218Z,71.4
2017-10-31T12:23:15.823Z,73
2017-10-31T12:23:46.408Z,73
2017-10-31T12:25:12.228Z,72.6
2017-10-31T12:26:11.236Z,72.3
2017-10-31T12:27:10.383Z,72.5
2017-10-31T12:28:09.529Z,72.1
2017-10-31T12:29:08.540Z,72.2
2017-10-31T12:30:07.961Z,72
2017-10-31T12:31:06.754Z,72.4
2017-10-31T12:32:05.772Z,71.9
2017-10-31T12:33:05.069Z,72
2017-10-31T12:34:04.343Z,72.4
2017-10-31T12:36:02.368Z,71.4
2017-10-31T12:37:01.644Z,71.6
2017-10-31T12:39:00.178Z,70.6
2017-10-31T12:39:59.104Z,70.5
2017-10-31T12:41:57.005Z,70.4
2017-10-31T12:42:27.609Z,70.4
2017-10-31T12:42:58.060Z,70.9
2017-10-31T12:43:55.570Z,71.3
2017-10-31T12:44:54.587Z,71
2017-10-31T12:45:53.727Z,71.1
2017-10-31T12:46:53.111Z,70.8
2017-10-31T12:47:52.257Z,70.9
2017-10-31T12:48:51.044Z,70.5
2017-10-31T12:49:50.325Z,70.4
2017-10-31T12:50:49.604Z,70
2017-10-31T12:51:48.617Z,70.2
2017-10-31T12:52:47.263Z,70.1
2017-10-31T12:53:46.649Z,70.9
2017-10-31T12:54:45.679Z,69.5
2017-10-31T12:55:44.690Z,69.9
2017-10-31T12:56:43.834Z,69.7
2017-10-31T12:57:43.238Z,69.2
2017-10-31T12:58:42.118Z,69.7
2017-10-31T12:59:41.270Z,69.9
2017-10-31T13:00:40.559Z,69.6
2017-10-31T13:01:39.707Z,69.9
2017-10-31T13:02:38.853Z,69.8
2017-10-31T13:03:37.733Z,69.9
2017-10-31T13:04:37.035Z,70
2017-10-31T13:05:36.458Z,69.9
2017-10-31T13:06:07.054Z,69.9
2017-10-31T13:07:34.606Z,70
2017-10-31T13:08:33.452Z,70.6
2017-10-31T13:09:32.491Z,70.3
2017-10-31T13:10:32.348Z,70
2017-10-31T13:11:30.801Z,69.8
2017-10-31T13:12:29.982Z,70.2
2017-10-31T13:13:29.219Z,69.9
2017-10-31T13:14:28.404Z,70.2
2017-10-31T13:15:27.565Z,70
2017-10-31T13:17:25.618Z,70
2017-10-31T13:19:23.933Z,70.5
2017-10-31T13:20:23.013Z,70.1
2017-10-31T13:21:22.039Z,70.4
2017-10-31T13:22:21.345Z,70.4
2017-10-31T13:23:20.509Z,70.5
2017-10-31T13:24:19.451Z,70.8
2017-10-31T13:25:18.511Z,70.9
2017-10-31T13:27:49.565Z,70.5
2017-10-31T13:28:20.096Z,70.3
2017-10-31T13:29:15.334Z,70
2017-10-31T13:30:14.097Z,70.7
2017-10-31T13:31:13.506Z,69.9
2017-10-31T13:32:12.654Z,69.9
2017-10-31T13:33:11.676Z,70.5
2017-10-31T13:34:10.698Z,69.7
2017-10-31T13:35:09.849Z,70.4
2017-10-31T13:36:08.871Z,69.7
2017-10-31T13:37:08.388Z,69.1
2017-10-31T13:38:07.269Z,69.2
2017-10-31T13:39:06.427Z,69
2017-10-31T13:40:05.575Z,68.5
2017-10-31T13:41:04.725Z,68.7